sensor_id;sensor_type;location;lat;lon;timestamp;P1;P2;P0
26185;PMS7003;20067;48.764;9.176;2023-02-15T00:01:17;45.25;37.50;20.50
26185;PMS7003;20067;48.764;9.176;2023-02-15T00:03:43;40.00;35.75;20.00
26185;PMS7003;20067;48.764;9.176;2023-02-15T00:06:08;56.75;44.75;24.50
26185;PMS7003;20067;48.764;9.176;2023-02-15T00:08:36;41.25;36.25;20.00
26185;PMS7003;20067;48.764;9.176;2023-02-15T00:11:15;35.50;33.75;21.25
26185;PMS7003;20067;48.764;9.176;2023-02-15T00:14:03;44.00;39.00;22.00
26185;PMS7003;20067;48.764;9.176;2023-02-15T00:16:31;41.25;32.50;18.25
26185;PMS7003;20067;48.764;9.176;2023-02-15T00:18:57;48.00;38.50;22.00
26185;PMS7003;20067;48.764;9.176;2023-02-15T00:21:26;46.50;36.00;18.00
26185;PMS7003;20067;48.764;9.176;2023-02-15T00:23:53;45.50;36.75;19.00
26185;PMS7003;20067;48.764;9.176;2023-02-15T00:26:19;46.00;35.00;20.75
26185;PMS7003;20067;48.764;9.176;2023-02-15T00:28:45;41.25;37.75;20.25
26185;PMS7003;20067;48.764;9.176;2023-02-15T00:31:11;33.50;30.00;17.50
26185;PMS7003;20067;48.764;9.176;2023-02-15T00:33:38;33.25;29.50;16.25
26185;PMS7003;20067;48.764;9.176;2023-02-15T00:36:05;45.25;32.25;17.25
26185;PMS7003;20067;48.764;9.176;2023-02-15T00:38:32;46.75;36.00;19.25
26185;PMS7003;20067;48.764;9.176;2023-02-15T00:41:00;43.50;33.25;18.00
26185;PMS7003;20067;48.764;9.176;2023-02-15T00:43:30;37.25;35.50;17.75
26185;PMS7003;20067;48.764;9.176;2023-02-15T00:45:57;38.75;35.25;20.50
26185;PMS7003;20067;48.764;9.176;2023-02-15T00:48:23;46.25;35.50;20.25
26185;PMS7003;20067;48.764;9.176;2023-02-15T00:50:50;38.25;34.75;18.00
26185;PMS7003;20067;48.764;9.176;2023-02-15T00:53:17;38.25;32.75;19.00
26185;PMS7003;20067;48.764;9.176;2023-02-15T00:55:46;41.00;40.00;19.00
26185;PMS7003;20067;48.764;9.176;2023-02-15T00:58:12;37.00;33.50;17.50
26185;PMS7003;20067;48.764;9.176;2023-02-15T01:00:39;31.50;28.50;16.00
26185;PMS7003;20067;48.764;9.176;2023-02-15T01:03:07;37.25;30.00;16.50
26185;PMS7003;20067;48.764;9.176;2023-02-15T01:05:32;46.50;36.50;20.50
26185;PMS7003;20067;48.764;9.176;2023-02-15T01:07:58;38.75;30.25;17.50
26185;PMS7003;20067;48.764;9.176;2023-02-15T01:10:25;39.75;37.50;21.25
26185;PMS7003;20067;48.764;9.176;2023-02-15T01:12:55;31.50;29.00;17.50
26185;PMS7003;20067;48.764;9.176;2023-02-15T01:15:22;43.25;34.25;20.00
26185;PMS7003;20067;48.764;9.176;2023-02-15T01:17:49;36.25;32.75;18.75
26185;PMS7003;20067;48.764;9.176;2023-02-15T01:20:18;40.00;34.25;17.50
26185;PMS7003;20067;48.764;9.176;2023-02-15T01:22:45;49.00;34.00;18.50
26185;PMS7003;20067;48.764;9.176;2023-02-15T01:25:11;43.75;34.50;18.00
26185;PMS7003;20067;48.764;9.176;2023-02-15T01:27:37;51.75;38.00;19.50
26185;PMS7003;20067;48.764;9.176;2023-02-15T01:30:03;40.25;35.00;20.00
26185;PMS7003;20067;48.764;9.176;2023-02-15T01:32:30;41.00;36.00;18.25
26185;PMS7003;20067;48.764;9.176;2023-02-15T01:34:56;33.00;28.25;19.75
26185;PMS7003;20067;48.764;9.176;2023-02-15T01:37:22;41.75;35.00;18.00
26185;PMS7003;20067;48.764;9.176;2023-02-15T01:39:47;41.50;31.50;19.25
26185;PMS7003;20067;48.764;9.176;2023-02-15T01:42:13;42.00;36.25;20.50
26185;PMS7003;20067;48.764;9.176;2023-02-15T01:47:26;46.50;34.00;19.00
26185;PMS7003;20067;48.764;9.176;2023-02-15T01:50:06;47.25;30.25;17.25
26185;PMS7003;20067;48.764;9.176;2023-02-15T01:52:44;38.75;32.50;15.75
26185;PMS7003;20067;48.764;9.176;2023-02-15T01:55:15;41.75;32.00;17.75
26185;PMS7003;20067;48.764;9.176;2023-02-15T01:57:42;42.75;32.25;17.75
26185;PMS7003;20067;48.764;9.176;2023-02-15T02:00:10;41.25;33.25;19.00
26185;PMS7003;20067;48.764;9.176;2023-02-15T02:02:37;45.25;41.00;22.25
26185;PMS7003;20067;48.764;9.176;2023-02-15T02:05:04;33.25;29.00;17.50
26185;PMS7003;20067;48.764;9.176;2023-02-15T02:07:33;35.25;32.00;15.50
26185;PMS7003;20067;48.764;9.176;2023-02-15T02:10:04;34.50;30.00;15.50
26185;PMS7003;20067;48.764;9.176;2023-02-15T02:12:30;30.50;27.75;17.00
26185;PMS7003;20067;48.764;9.176;2023-02-15T02:14:57;41.75;36.25;21.25
26185;PMS7003;20067;48.764;9.176;2023-02-15T02:20:09;35.75;31.25;18.25
26185;PMS7003;20067;48.764;9.176;2023-02-15T02:23:08;37.00;29.00;17.50
26185;PMS7003;20067;48.764;9.176;2023-02-15T02:26:10;34.75;32.75;19.50
26185;PMS7003;20067;48.764;9.176;2023-02-15T02:32:16;34.00;30.00;15.50
26185;PMS7003;20067;48.764;9.176;2023-02-15T02:34:29;32.50;29.50;17.00
26185;PMS7003;20067;48.764;9.176;2023-02-15T02:39:55;39.00;31.00;17.00
26185;PMS7003;20067;48.764;9.176;2023-02-15T02:45:05;34.25;31.00;17.25
26185;PMS7003;20067;48.764;9.176;2023-02-15T02:47:59;31.00;30.50;17.00
26185;PMS7003;20067;48.764;9.176;2023-02-15T02:50:38;38.75;28.25;17.00
26185;PMS7003;20067;48.764;9.176;2023-02-15T02:53:04;41.75;31.25;18.00
26185;PMS7003;20067;48.764;9.176;2023-02-15T02:55:30;37.50;33.25;17.50
26185;PMS7003;20067;48.764;9.176;2023-02-15T02:58:37;35.25;28.75;15.50
26185;PMS7003;20067;48.764;9.176;2023-02-15T03:01:15;34.75;31.25;15.50
26185;PMS7003;20067;48.764;9.176;2023-02-15T03:03:56;37.75;32.25;17.00
26185;PMS7003;20067;48.764;9.176;2023-02-15T03:06:30;34.50;27.00;14.00
26185;PMS7003;20067;48.764;9.176;2023-02-15T03:09:24;39.25;29.50;15.00
26185;PMS7003;20067;48.764;9.176;2023-02-15T03:11:59;41.25;31.25;16.50
26185;PMS7003;20067;48.764;9.176;2023-02-15T03:14:28;48.25;37.75;19.00
26185;PMS7003;20067;48.764;9.176;2023-02-15T03:16:54;36.00;33.00;17.00
26185;PMS7003;20067;48.764;9.176;2023-02-15T03:19:25;32.50;26.00;15.50
26185;PMS7003;20067;48.764;9.176;2023-02-15T03:21:55;35.75;30.25;17.50
26185;PMS7003;20067;48.764;9.176;2023-02-15T03:24:32;37.00;34.50;17.00
26185;PMS7003;20067;48.764;9.176;2023-02-15T03:27:00;42.50;34.75;18.00
26185;PMS7003;20067;48.764;9.176;2023-02-15T03:29:32;36.75;33.00;16.50
26185;PMS7003;20067;48.764;9.176;2023-02-15T03:32:00;33.25;29.25;16.50
26185;PMS7003;20067;48.764;9.176;2023-02-15T03:34:29;39.25;31.00;19.00
26185;PMS7003;20067;48.764;9.176;2023-02-15T03:42:26;36.75;31.50;16.50
26185;PMS7003;20067;48.764;9.176;2023-02-15T03:45:02;41.75;31.00;17.00
26185;PMS7003;20067;48.764;9.176;2023-02-15T03:47:35;28.50;25.50;16.50
26185;PMS7003;20067;48.764;9.176;2023-02-15T03:52:57;38.00;32.25;16.00
26185;PMS7003;20067;48.764;9.176;2023-02-15T03:55:25;32.00;24.25;11.50
26185;PMS7003;20067;48.764;9.176;2023-02-15T03:57:51;35.75;32.75;16.50
26185;PMS7003;20067;48.764;9.176;2023-02-15T04:00:35;39.25;31.75;15.50
26185;PMS7003;20067;48.764;9.176;2023-02-15T04:05:56;37.25;33.50;17.00
26185;PMS7003;20067;48.764;9.176;2023-02-15T04:08:21;30.00;28.75;15.50
26185;PMS7003;20067;48.764;9.176;2023-02-15T04:11:07;31.00;28.75;15.25
26185;PMS7003;20067;48.764;9.176;2023-02-15T04:13:33;44.75;37.00;19.00
26185;PMS7003;20067;48.764;9.176;2023-02-15T04:15:58;40.00;32.00;16.50
26185;PMS7003;20067;48.764;9.176;2023-02-15T04:21:19;37.75;31.50;15.00
26185;PMS7003;20067;48.764;9.176;2023-02-15T04:24:04;35.00;29.25;17.00
26185;PMS7003;20067;48.764;9.176;2023-02-15T04:26:48;32.75;27.50;16.00
26185;PMS7003;20067;48.764;9.176;2023-02-15T04:29:17;32.75;31.00;15.00
26185;PMS7003;20067;48.764;9.176;2023-02-15T04:31:43;35.25;30.50;16.00
26185;PMS7003;20067;48.764;9.176;2023-02-15T04:34:09;29.75;28.00;15.50
26185;PMS7003;20067;48.764;9.176;2023-02-15T04:36:35;35.75;26.75;13.00
26185;PMS7003;20067;48.764;9.176;2023-02-15T04:39:02;43.50;37.25;20.75
26185;PMS7003;20067;48.764;9.176;2023-02-15T04:41:27;34.25;29.75;17.00
26185;PMS7003;20067;48.764;9.176;2023-02-15T04:43:53;39.00;31.25;17.00
26185;PMS7003;20067;48.764;9.176;2023-02-15T04:46:19;34.25;30.75;15.75
26185;PMS7003;20067;48.764;9.176;2023-02-15T04:48:44;38.75;31.00;19.00
26185;PMS7003;20067;48.764;9.176;2023-02-15T04:51:10;32.75;31.00;17.25
26185;PMS7003;20067;48.764;9.176;2023-02-15T04:53:36;36.25;31.75;17.75
26185;PMS7003;20067;48.764;9.176;2023-02-15T04:56:02;32.75;29.25;13.50
26185;PMS7003;20067;48.764;9.176;2023-02-15T04:58:28;46.00;33.75;18.50
26185;PMS7003;20067;48.764;9.176;2023-02-15T05:00:56;37.25;29.00;17.00
26185;PMS7003;20067;48.764;9.176;2023-02-15T05:03:23;38.25;31.00;15.00
26185;PMS7003;20067;48.764;9.176;2023-02-15T05:05:52;36.50;33.00;16.50
26185;PMS7003;20067;48.764;9.176;2023-02-15T05:08:17;39.00;28.00;13.00
26185;PMS7003;20067;48.764;9.176;2023-02-15T05:10:43;40.00;27.00;15.00
26185;PMS7003;20067;48.764;9.176;2023-02-15T05:13:10;40.00;32.00;18.00
26185;PMS7003;20067;48.764;9.176;2023-02-15T05:15:35;37.25;28.75;14.50
26185;PMS7003;20067;48.764;9.176;2023-02-15T05:18:01;36.50;35.00;18.00
26185;PMS7003;20067;48.764;9.176;2023-02-15T05:20:27;34.25;28.00;15.50
26185;PMS7003;20067;48.764;9.176;2023-02-15T05:22:53;27.00;26.50;13.50
26185;PMS7003;20067;48.764;9.176;2023-02-15T05:25:25;34.25;33.25;17.25
26185;PMS7003;20067;48.764;9.176;2023-02-15T05:28:10;32.00;28.25;14.75
26185;PMS7003;20067;48.764;9.176;2023-02-15T05:33:28;31.00;26.00;15.50
26185;PMS7003;20067;48.764;9.176;2023-02-15T05:35:54;35.00;28.50;18.00
26185;PMS7003;20067;48.764;9.176;2023-02-15T05:38:19;42.00;34.25;18.75
26185;PMS7003;20067;48.764;9.176;2023-02-15T05:40:45;38.25;32.50;20.00
26185;PMS7003;20067;48.764;9.176;2023-02-15T05:43:11;35.00;33.00;17.25
26185;PMS7003;20067;48.764;9.176;2023-02-15T05:45:36;37.25;28.50;17.00
26185;PMS7003;20067;48.764;9.176;2023-02-15T05:48:02;37.25;33.25;18.50
26185;PMS7003;20067;48.764;9.176;2023-02-15T05:50:27;38.25;31.75;18.25
26185;PMS7003;20067;48.764;9.176;2023-02-15T05:52:53;33.00;28.50;15.00
26185;PMS7003;20067;48.764;9.176;2023-02-15T05:55:19;33.50;33.00;19.50
26185;PMS7003;20067;48.764;9.176;2023-02-15T05:57:45;43.00;34.25;18.75
26185;PMS7003;20067;48.764;9.176;2023-02-15T06:00:11;44.25;34.75;18.75
26185;PMS7003;20067;48.764;9.176;2023-02-15T06:02:38;35.50;30.25;15.50
26185;PMS7003;20067;48.764;9.176;2023-02-15T06:05:05;33.00;31.25;20.75
26185;PMS7003;20067;48.764;9.176;2023-02-15T06:07:31;34.25;32.50;17.00
26185;PMS7003;20067;48.764;9.176;2023-02-15T06:09:57;42.00;39.00;20.00
26185;PMS7003;20067;48.764;9.176;2023-02-15T06:12:22;36.75;29.75;16.00
26185;PMS7003;20067;48.764;9.176;2023-02-15T06:14:48;33.00;29.50;17.25
26185;PMS7003;20067;48.764;9.176;2023-02-15T06:17:14;37.25;35.25;20.75
26185;PMS7003;20067;48.764;9.176;2023-02-15T06:19:39;42.00;35.75;18.00
26185;PMS7003;20067;48.764;9.176;2023-02-15T06:22:05;40.75;35.75;20.25
26185;PMS7003;20067;48.764;9.176;2023-02-15T06:24:31;35.75;30.00;18.00
26185;PMS7003;20067;48.764;9.176;2023-02-15T06:26:57;35.75;30.00;18.00
26185;PMS7003;20067;48.764;9.176;2023-02-15T06:29:23;43.50;38.50;21.00
26185;PMS7003;20067;48.764;9.176;2023-02-15T06:31:48;40.00;32.50;20.25
26185;PMS7003;20067;48.764;9.176;2023-02-15T06:34:14;31.75;30.75;17.25
26185;PMS7003;20067;48.764;9.176;2023-02-15T06:36:40;36.00;32.50;18.00
26185;PMS7003;20067;48.764;9.176;2023-02-15T06:39:06;33.50;31.75;17.00
26185;PMS7003;20067;48.764;9.176;2023-02-15T06:41:31;39.50;33.00;16.25
26185;PMS7003;20067;48.764;9.176;2023-02-15T06:43:57;40.50;32.00;20.00
26185;PMS7003;20067;48.764;9.176;2023-02-15T06:46:23;36.00;27.25;15.75
26185;PMS7003;20067;48.764;9.176;2023-02-15T06:48:48;36.75;34.25;20.75
26185;PMS7003;20067;48.764;9.176;2023-02-15T06:51:14;46.00;36.50;18.50
26185;PMS7003;20067;48.764;9.176;2023-02-15T06:53:40;33.50;31.00;18.25
26185;PMS7003;20067;48.764;9.176;2023-02-15T06:56:09;38.00;35.25;18.00
26185;PMS7003;20067;48.764;9.176;2023-02-15T06:58:36;42.75;35.75;18.50
26185;PMS7003;20067;48.764;9.176;2023-02-15T07:01:02;40.75;35.00;21.25
26185;PMS7003;20067;48.764;9.176;2023-02-15T07:03:29;41.25;35.25;18.50
26185;PMS7003;20067;48.764;9.176;2023-02-15T07:05:59;35.00;31.00;18.25
26185;PMS7003;20067;48.764;9.176;2023-02-15T07:08:26;41.25;32.25;19.00
26185;PMS7003;20067;48.764;9.176;2023-02-15T07:10:53;42.75;31.50;19.00
26185;PMS7003;20067;48.764;9.176;2023-02-15T07:13:41;43.25;36.25;22.75
26185;PMS7003;20067;48.764;9.176;2023-02-15T07:16:07;35.50;31.50;16.75
26185;PMS7003;20067;48.764;9.176;2023-02-15T07:18:34;47.50;40.50;23.00
26185;PMS7003;20067;48.764;9.176;2023-02-15T07:20:59;40.25;34.00;19.00
26185;PMS7003;20067;48.764;9.176;2023-02-15T07:23:25;48.75;36.25;21.25
26185;PMS7003;20067;48.764;9.176;2023-02-15T07:25:56;39.25;34.00;22.00
26185;PMS7003;20067;48.764;9.176;2023-02-15T07:28:25;38.75;35.00;20.00
26185;PMS7003;20067;48.764;9.176;2023-02-15T07:30:51;39.75;35.50;19.00
26185;PMS7003;20067;48.764;9.176;2023-02-15T07:33:16;35.50;31.50;19.25
26185;PMS7003;20067;48.764;9.176;2023-02-15T07:35:51;35.00;33.00;18.25
26185;PMS7003;20067;48.764;9.176;2023-02-15T07:38:19;41.50;34.50;19.25
26185;PMS7003;20067;48.764;9.176;2023-02-15T07:40:45;46.00;39.50;20.75
26185;PMS7003;20067;48.764;9.176;2023-02-15T07:43:11;43.00;34.75;22.00
26185;PMS7003;20067;48.764;9.176;2023-02-15T07:45:37;43.75;35.75;22.00
26185;PMS7003;20067;48.764;9.176;2023-02-15T07:48:04;30.50;30.00;19.75
26185;PMS7003;20067;48.764;9.176;2023-02-15T07:50:31;44.00;38.50;20.50
26185;PMS7003;20067;48.764;9.176;2023-02-15T07:52:57;41.75;35.00;20.00
26185;PMS7003;20067;48.764;9.176;2023-02-15T07:55:23;44.00;38.50;24.25
26185;PMS7003;20067;48.764;9.176;2023-02-15T07:57:50;50.75;42.25;23.00
26185;PMS7003;20067;48.764;9.176;2023-02-15T08:00:17;35.75;31.50;16.75
26185;PMS7003;20067;48.764;9.176;2023-02-15T08:02:49;47.75;36.00;20.50
26185;PMS7003;20067;48.764;9.176;2023-02-15T08:05:34;53.75;42.25;23.25
26185;PMS7003;20067;48.764;9.176;2023-02-15T08:08:00;39.75;36.75;21.00
26185;PMS7003;20067;48.764;9.176;2023-02-15T08:10:26;48.00;38.75;21.25
26185;PMS7003;20067;48.764;9.176;2023-02-15T08:13:11;43.00;34.50;19.75
26185;PMS7003;20067;48.764;9.176;2023-02-15T08:15:37;47.50;36.50;20.50
26185;PMS7003;20067;48.764;9.176;2023-02-15T08:18:02;39.25;36.25;20.50
26185;PMS7003;20067;48.764;9.176;2023-02-15T08:20:28;37.75;35.75;20.75
26185;PMS7003;20067;48.764;9.176;2023-02-15T08:22:54;61.50;46.75;25.00
26185;PMS7003;20067;48.764;9.176;2023-02-15T08:25:19;47.25;35.25;20.25
26185;PMS7003;20067;48.764;9.176;2023-02-15T08:27:45;39.25;37.25;22.00
26185;PMS7003;20067;48.764;9.176;2023-02-15T08:30:10;38.50;35.75;22.00
26185;PMS7003;20067;48.764;9.176;2023-02-15T08:32:39;46.75;40.00;24.00
26185;PMS7003;20067;48.764;9.176;2023-02-15T08:35:04;44.25;38.75;24.75
26185;PMS7003;20067;48.764;9.176;2023-02-15T08:37:30;46.00;42.50;23.50
26185;PMS7003;20067;48.764;9.176;2023-02-15T08:39:56;48.00;41.50;24.00
26185;PMS7003;20067;48.764;9.176;2023-02-15T08:42:21;51.75;44.00;26.75
26185;PMS7003;20067;48.764;9.176;2023-02-15T08:44:47;51.00;40.50;26.00
26185;PMS7003;20067;48.764;9.176;2023-02-15T08:47:15;47.00;40.00;24.25
26185;PMS7003;20067;48.764;9.176;2023-02-15T08:49:41;42.50;35.50;22.50
26185;PMS7003;20067;48.764;9.176;2023-02-15T08:52:06;36.25;32.75;22.25
26185;PMS7003;20067;48.764;9.176;2023-02-15T08:54:32;49.50;43.25;27.00
26185;PMS7003;20067;48.764;9.176;2023-02-15T08:56:58;48.75;43.25;25.75
26185;PMS7003;20067;48.764;9.176;2023-02-15T08:59:24;44.00;40.75;26.25
26185;PMS7003;20067;48.764;9.176;2023-02-15T09:01:52;49.50;42.00;23.75
26185;PMS7003;20067;48.764;9.176;2023-02-15T09:04:18;47.50;40.00;25.50
26185;PMS7003;20067;48.764;9.176;2023-02-15T09:06:46;48.75;40.75;25.00
26185;PMS7003;20067;48.764;9.176;2023-02-15T09:09:13;42.50;38.75;25.50
26185;PMS7003;20067;48.764;9.176;2023-02-15T09:11:40;47.25;40.00;25.00
26185;PMS7003;20067;48.764;9.176;2023-02-15T09:14:09;49.00;40.75;25.75
26185;PMS7003;20067;48.764;9.176;2023-02-15T09:16:38;50.00;42.00;28.00
26185;PMS7003;20067;48.764;9.176;2023-02-15T09:19:05;52.50;41.75;26.75
26185;PMS7003;20067;48.764;9.176;2023-02-15T09:21:33;50.00;41.25;26.75
26185;PMS7003;20067;48.764;9.176;2023-02-15T09:24:03;50.25;41.00;27.00
26185;PMS7003;20067;48.764;9.176;2023-02-15T09:26:30;47.00;41.50;27.00
26185;PMS7003;20067;48.764;9.176;2023-02-15T09:28:59;51.00;43.25;29.75
26185;PMS7003;20067;48.764;9.176;2023-02-15T09:31:30;43.75;40.25;27.75
26185;PMS7003;20067;48.764;9.176;2023-02-15T09:33:57;45.50;42.00;26.25
26185;PMS7003;20067;48.764;9.176;2023-02-15T09:36:33;43.50;40.50;25.50
26185;PMS7003;20067;48.764;9.176;2023-02-15T09:41:52;48.25;42.50;26.00
26185;PMS7003;20067;48.764;9.176;2023-02-15T09:52:28;56.50;43.75;28.25
26185;PMS7003;20067;48.764;9.176;2023-02-15T10:14:07;51.50;45.00;27.00
26185;PMS7003;20067;48.764;9.176;2023-02-15T10:16:50;53.75;42.50;27.50
26185;PMS7003;20067;48.764;9.176;2023-02-15T10:19:55;48.75;42.75;27.00
26185;PMS7003;20067;48.764;9.176;2023-02-15T10:33:57;50.00;41.00;27.75
26185;PMS7003;20067;48.764;9.176;2023-02-15T10:49:35;57.75;45.75;28.50
26185;PMS7003;20067;48.764;9.176;2023-02-15T11:00:25;48.25;42.00;28.00
26185;PMS7003;20067;48.764;9.176;2023-02-15T11:03:18;52.00;42.50;28.50
26185;PMS7003;20067;48.764;9.176;2023-02-15T11:05:57;48.50;42.75;26.75
26185;PMS7003;20067;48.764;9.176;2023-02-15T11:08:36;53.50;43.00;27.25
26185;PMS7003;20067;48.764;9.176;2023-02-15T11:11:21;52.25;44.75;29.50
26185;PMS7003;20067;48.764;9.176;2023-02-15T11:13:53;60.50;45.25;29.25
26185;PMS7003;20067;48.764;9.176;2023-02-15T11:16:25;52.50;42.00;28.50
26185;PMS7003;20067;48.764;9.176;2023-02-15T11:19:24;52.75;42.75;29.00
26185;PMS7003;20067;48.764;9.176;2023-02-15T11:21:57;50.25;41.75;27.00
26185;PMS7003;20067;48.764;9.176;2023-02-15T11:24:27;49.25;41.25;28.00
26185;PMS7003;20067;48.764;9.176;2023-02-15T11:29:39;53.00;43.75;29.00
26185;PMS7003;20067;48.764;9.176;2023-02-15T11:32:23;54.25;42.50;27.00
26185;PMS7003;20067;48.764;9.176;2023-02-15T11:34:56;55.00;45.00;28.75
26185;PMS7003;20067;48.764;9.176;2023-02-15T11:38:07;56.75;45.25;29.00
26185;PMS7003;20067;48.764;9.176;2023-02-15T11:42:49;57.50;45.75;28.75
26185;PMS7003;20067;48.764;9.176;2023-02-15T11:45:27;55.00;45.00;30.00
26185;PMS7003;20067;48.764;9.176;2023-02-15T11:47:59;53.25;44.75;29.25
26185;PMS7003;20067;48.764;9.176;2023-02-15T11:50:26;56.75;44.00;27.75
26185;PMS7003;20067;48.764;9.176;2023-02-15T11:53:06;58.25;45.50;30.00
26185;PMS7003;20067;48.764;9.176;2023-02-15T11:55:38;52.50;46.00;31.25
26185;PMS7003;20067;48.764;9.176;2023-02-15T11:58:50;50.50;42.25;28.75
26185;PMS7003;20067;48.764;9.176;2023-02-15T12:03:45;54.00;45.00;28.00
26185;PMS7003;20067;48.764;9.176;2023-02-15T12:06:21;51.50;44.50;29.00
26185;PMS7003;20067;48.764;9.176;2023-02-15T12:08:55;55.00;45.25;30.25
26185;PMS7003;20067;48.764;9.176;2023-02-15T12:11:35;57.50;48.00;29.00
26185;PMS7003;20067;48.764;9.176;2023-02-15T12:14:09;53.50;46.25;31.00
26185;PMS7003;20067;48.764;9.176;2023-02-15T12:16:51;54.75;46.50;30.00
26185;PMS7003;20067;48.764;9.176;2023-02-15T12:22:05;56.00;46.75;28.25
26185;PMS7003;20067;48.764;9.176;2023-02-15T12:24:46;51.50;47.75;31.50
26185;PMS7003;20067;48.764;9.176;2023-02-15T12:27:15;53.50;42.25;27.50
26185;PMS7003;20067;48.764;9.176;2023-02-15T12:29:44;52.25;47.00;29.00
26185;PMS7003;20067;48.764;9.176;2023-02-15T12:32:17;57.75;50.50;32.75
26185;PMS7003;20067;48.764;9.176;2023-02-15T12:34:49;56.50;48.25;29.50
26185;PMS7003;20067;48.764;9.176;2023-02-15T12:39:54;55.75;46.25;26.75
26185;PMS7003;20067;48.764;9.176;2023-02-15T12:42:21;61.00;48.75;30.00
26185;PMS7003;20067;48.764;9.176;2023-02-15T12:45:32;46.75;41.75;27.25
26185;PMS7003;20067;48.764;9.176;2023-02-15T12:50:39;56.50;48.00;30.50
26185;PMS7003;20067;48.764;9.176;2023-02-15T12:58:25;53.75;46.00;29.00
26185;PMS7003;20067;48.764;9.176;2023-02-15T13:01:02;59.50;46.00;31.75
26185;PMS7003;20067;48.764;9.176;2023-02-15T13:03:28;53.75;48.75;31.25
26185;PMS7003;20067;48.764;9.176;2023-02-15T13:05:55;64.75;51.50;31.00
26185;PMS7003;20067;48.764;9.176;2023-02-15T13:08:27;57.25;50.00;32.75
26185;PMS7003;20067;48.764;9.176;2023-02-15T13:11:06;61.50;50.75;33.00
26185;PMS7003;20067;48.764;9.176;2023-02-15T13:16:37;57.00;46.50;30.25
26185;PMS7003;20067;48.764;9.176;2023-02-15T13:19:12;56.50;48.00;29.75
26185;PMS7003;20067;48.764;9.176;2023-02-15T13:21:46;57.00;48.50;31.50
26185;PMS7003;20067;48.764;9.176;2023-02-15T13:24:18;58.75;46.50;30.75
26185;PMS7003;20067;48.764;9.176;2023-02-15T13:26:51;56.50;48.00;31.00
26185;PMS7003;20067;48.764;9.176;2023-02-15T13:29:27;59.25;49.75;30.75
26185;PMS7003;20067;48.764;9.176;2023-02-15T13:31:56;62.25;49.75;31.00
26185;PMS7003;20067;48.764;9.176;2023-02-15T13:34:36;59.00;49.25;32.75
26185;PMS7003;20067;48.764;9.176;2023-02-15T13:37:14;60.00;50.50;31.00
26185;PMS7003;20067;48.764;9.176;2023-02-15T13:40:08;57.50;49.75;31.00
26185;PMS7003;20067;48.764;9.176;2023-02-15T13:42:49;59.25;49.50;31.00
26185;PMS7003;20067;48.764;9.176;2023-02-15T13:55:50;53.75;46.00;29.00
26185;PMS7003;20067;48.764;9.176;2023-02-15T14:01:57;51.75;45.00;27.25
26185;PMS7003;20067;48.764;9.176;2023-02-15T14:04:52;53.75;47.50;31.75
26185;PMS7003;20067;48.764;9.176;2023-02-15T14:21:51;61.75;50.50;30.75
26185;PMS7003;20067;48.764;9.176;2023-02-15T14:32:04;58.75;46.00;30.50
26185;PMS7003;20067;48.764;9.176;2023-02-15T14:34:44;64.50;49.75;30.50
26185;PMS7003;20067;48.764;9.176;2023-02-15T14:37:16;61.75;50.25;30.00
26185;PMS7003;20067;48.764;9.176;2023-02-15T14:43:00;59.50;49.50;30.75
26185;PMS7003;20067;48.764;9.176;2023-02-15T14:45:49;51.50;43.75;28.00
26185;PMS7003;20067;48.764;9.176;2023-02-15T14:48:24;52.50;45.50;28.00
26185;PMS7003;20067;48.764;9.176;2023-02-15T14:50:55;46.75;41.75;29.00
26185;PMS7003;20067;48.764;9.176;2023-02-15T14:58:39;43.50;40.00;24.00
26185;PMS7003;20067;48.764;9.176;2023-02-15T15:01:39;53.00;46.25;29.75
26185;PMS7003;20067;48.764;9.176;2023-02-15T15:04:06;43.25;39.75;27.50
26185;PMS7003;20067;48.764;9.176;2023-02-15T15:06:37;52.50;45.00;29.25
26185;PMS7003;20067;48.764;9.176;2023-02-15T15:11:45;45.25;39.50;23.50
26185;PMS7003;20067;48.764;9.176;2023-02-15T15:17:00;45.00;39.25;25.25
26185;PMS7003;20067;48.764;9.176;2023-02-15T15:22:20;43.50;38.50;23.50
26185;PMS7003;20067;48.764;9.176;2023-02-15T15:25:10;50.75;44.75;28.50
26185;PMS7003;20067;48.764;9.176;2023-02-15T15:27:53;50.75;40.25;23.50
26185;PMS7003;20067;48.764;9.176;2023-02-15T15:43:59;45.50;43.00;25.25
26185;PMS7003;20067;48.764;9.176;2023-02-15T15:49:34;46.75;40.00;25.00
26185;PMS7003;20067;48.764;9.176;2023-02-15T15:52:03;43.50;40.50;24.75
26185;PMS7003;20067;48.764;9.176;2023-02-15T15:54:41;54.00;45.50;28.00
26185;PMS7003;20067;48.764;9.176;2023-02-15T15:57:14;51.25;43.50;24.50
26185;PMS7003;20067;48.764;9.176;2023-02-15T15:59:47;51.75;42.75;29.00
26185;PMS7003;20067;48.764;9.176;2023-02-15T16:02:14;51.50;45.75;27.00
26185;PMS7003;20067;48.764;9.176;2023-02-15T16:04:42;49.25;43.00;26.00
26185;PMS7003;20067;48.764;9.176;2023-02-15T16:07:27;47.75;43.25;27.00
26185;PMS7003;20067;48.764;9.176;2023-02-15T16:10:00;52.50;45.75;30.75
26185;PMS7003;20067;48.764;9.176;2023-02-15T16:12:34;47.50;42.25;27.75
26185;PMS7003;20067;48.764;9.176;2023-02-15T16:15:13;50.25;46.00;28.25
26185;PMS7003;20067;48.764;9.176;2023-02-15T16:17:43;50.50;45.25;27.75
26185;PMS7003;20067;48.764;9.176;2023-02-15T16:22:54;56.75;48.25;31.75
26185;PMS7003;20067;48.764;9.176;2023-02-15T16:28:27;55.25;49.00;29.25
26185;PMS7003;20067;48.764;9.176;2023-02-15T16:31:13;56.25;47.75;30.00
26185;PMS7003;20067;48.764;9.176;2023-02-15T16:33:41;57.00;47.00;29.50
26185;PMS7003;20067;48.764;9.176;2023-02-15T16:36:21;54.00;49.50;31.00
26185;PMS7003;20067;48.764;9.176;2023-02-15T16:43:56;49.50;48.25;27.00
26185;PMS7003;20067;48.764;9.176;2023-02-15T16:49:07;35.75;33.50;20.00
26185;PMS7003;20067;48.764;9.176;2023-02-15T16:51:41;45.25;37.50;23.00
26185;PMS7003;20067;48.764;9.176;2023-02-15T16:54:16;53.75;44.50;26.75
26185;PMS7003;20067;48.764;9.176;2023-02-15T16:56:45;53.50;47.50;30.75
26185;PMS7003;20067;48.764;9.176;2023-02-15T17:02:05;49.00;45.00;27.25
26185;PMS7003;20067;48.764;9.176;2023-02-15T17:04:37;43.50;40.25;26.00
26185;PMS7003;20067;48.764;9.176;2023-02-15T17:07:17;40.75;37.25;19.75
26185;PMS7003;20067;48.764;9.176;2023-02-15T17:09:53;38.50;33.00;20.50
26185;PMS7003;20067;48.764;9.176;2023-02-15T17:13:21;39.50;35.75;19.50
26185;PMS7003;20067;48.764;9.176;2023-02-15T17:17:57;34.25;32.00;17.50
26185;PMS7003;20067;48.764;9.176;2023-02-15T17:20:25;33.75;31.50;18.00
26185;PMS7003;20067;48.764;9.176;2023-02-15T17:22:51;24.50;23.00;14.00
26185;PMS7003;20067;48.764;9.176;2023-02-15T17:25:23;27.75;23.25;13.75
26185;PMS7003;20067;48.764;9.176;2023-02-15T17:27:53;34.50;30.25;15.00
26185;PMS7003;20067;48.764;9.176;2023-02-15T17:30:26;31.00;30.00;15.25
26185;PMS7003;20067;48.764;9.176;2023-02-15T17:32:56;30.25;27.00;15.00
26185;PMS7003;20067;48.764;9.176;2023-02-15T17:35:25;28.50;25.25;13.75